02:13
Airports
History
Links
Donate
Help keep this website running!
PayPal
Bitcoin
Information on this page is community maintained and may be outdated or inaccurate and is intended for reference only or PC simulator navigating!
Always use approved charts for navigating.
EDTQ
Pattonville Airport
Pattonville Airport (EDTQ)
Remseck, Baden-Wurttemberg, Germany (71686)
(C)
Lat/Lng:48° 51' 51.08" N / 9° 13' 28.93" E
48.86419 / 9.224702
Elevation:920'ft 280mMSL
ID / ICAO:EDTQ
Runways:1
Longest:(10-28) 675.9m 2,218ft Asphalt
Controlled:Yes
Beacon:White-Green
Distance To
Airport ID:
Nearby VORs <50NM
Nearby NDBs
Nearby WeatherUpdated 04-26-17 01:50 GMT
Nearby weather at EDDS, Stuttgart located 12.0 nautical miles from EDTQ
Altimeter: 29.77
Visibility: 6.2 statute miles
Wind: 5 knots (060°)
Temp: 3°c 37°f
Humidity: 93.1%

METAR: EDDS 260150Z 06005KT 9999 -RA BKN007 OVC028 03/02 Q1008

(Powered by phpweather)
Runway 10 / 28
Dimensions:675.9 x 21m 2218' x 69'ft
Surface:Asphalt
Edge Lights:Low intensity
Runway 10 [A]Runway 28 [B]
Heading:103°TH 283°TH
Lat:
Lng:
48° 51' 53.59"N
9° 13' 12.85"E
48° 51' 48.58"N
9° 13' 45"E
ALS:MALSFMALSF
Google Map
Nearby Airports
(C) Backnang-Heiningen 11.2 NM
EDSH ENE 69°
(C) Stuttgart 12.0 NM
EDDS (WX) S 180°
(U) SCHWABISCH HALL 30.8 NM
EDTY NE 55°
(U) Laichingen 31.7 NM
EDPJ SE 143°
(C) Heubach 32.2 NM
EDTH E 97°
(U) Ingelfingen Buehlhof 37.1 NM
EDGI NNE 31°
(U) Mosbach Lohrbach 37.4 NM
EDGM N 352°
VFR Chart
Flight Planning at SkyVector.com